Time;durP1;ratioP1;P1;durP2;ratioP2;P2;SDS_P1;SDS_P2;PMS_P1;PMS_P2;Temp;Humidity;BMP_temperature;BMP_pressure;BME280_temperature;BME280_humidity;BME280_pressure;Samples;Min_cycle;Max_cycle;Signal;HPM_P1;HPM_P2
2023/06/30 00:01:48;;;;;;;7.43;5.18;;;;;;;21.05;66.81;100550.13;7401834;19;20034;-67
2023/06/30 00:04:19;;;;;;;5.82;4.70;;;;;;;21.01;67.31;100548.66;7399633;19;20035;-67
2023/06/30 00:06:49;;;;;;;6.22;5.50;;;;;;;20.95;68.01;100553.44;7401652;19;20025;-66
2023/06/30 00:09:18;;;;;;;7.32;5.57;;;;;;;20.93;68.76;100552.69;7399297;19;20014;-67
2023/06/30 00:11:46;;;;;;;8.07;5.60;;;;;;;20.87;69.60;100553.09;7398383;19;20035;-67
2023/06/30 00:14:17;;;;;;;8.00;6.10;;;;;;;20.77;71.16;100552.84;7398985;19;20019;-67
2023/06/30 00:16:46;;;;;;;8.02;6.18;;;;;;;20.62;72.42;100565.38;7400575;19;20070;-67
2023/06/30 00:19:14;;;;;;;8.02;6.38;;;;;;;20.45;73.06;100558.53;7400803;19;20025;-67
2023/06/30 00:21:43;;;;;;;9.27;7.20;;;;;;;20.25;74.71;100556.31;7398140;19;20026;-67
2023/06/30 00:24:12;;;;;;;8.93;7.18;;;;;;;20.06;76.12;100565.50;7398413;19;20422;-67
2023/06/30 00:26:41;;;;;;;10.05;7.60;;;;;;;19.90;76.45;100562.97;7398066;19;20018;-67
2023/06/30 00:29:10;;;;;;;8.32;7.13;;;;;;;19.77;77.63;100548.72;7397490;19;20434;-67
2023/06/30 00:31:41;;;;;;;11.23;6.95;;;;;;;19.66;78.36;100544.06;7399981;19;20031;-67
2023/06/30 00:34:09;;;;;;;12.68;8.93;;;;;;;19.58;78.87;100554.34;7398308;19;20031;-67
2023/06/30 00:36:38;;;;;;;9.63;8.07;;;;;;;19.51;79.27;100538.75;7399805;19;20371;-67
2023/06/30 00:39:06;;;;;;;11.45;8.32;;;;;;;19.47;79.66;100539.03;7399951;19;20023;-67
2023/06/30 00:41:35;;;;;;;11.63;8.90;;;;;;;19.44;80.43;100536.56;7397154;19;20385;-67
2023/06/30 00:44:04;;;;;;;9.73;8.75;;;;;;;19.42;80.53;100541.97;7398415;19;20019;-66
2023/06/30 00:46:33;;;;;;;14.93;9.48;;;;;;;19.37;80.73;100533.41;7399471;19;20011;-66
2023/06/30 00:49:04;;;;;;;13.70;9.63;;;;;;;19.33;81.72;100532.75;7398291;19;20015;-67
2023/06/30 00:51:32;;;;;;;11.57;10.20;;;;;;;19.28;81.79;100532.19;7399408;19;20489;-67
2023/06/30 00:54:01;;;;;;;14.30;11.25;;;;;;;19.25;82.30;100534.22;7398087;19;20424;-65
2023/06/30 00:56:30;;;;;;;14.05;11.02;;;;;;;19.21;82.74;100529.06;7396835;19;20032;-65
2023/06/30 00:58:59;;;;;;;14.85;11.88;;;;;;;19.18;82.93;100521.28;7396927;19;20074;-65
2023/06/30 01:01:33;;;;;;;15.43;11.55;;;;;;;19.16;83.24;100535.63;7399358;19;20029;-65
2023/06/30 01:04:15;;;;;;;17.17;12.98;;;;;;;19.14;83.56;100529.53;7398038;19;20018;-65
2023/06/30 01:06:53;;;;;;;16.25;12.95;;;;;;;19.13;83.87;100525.16;7397719;19;20032;-65
2023/06/30 01:09:24;;;;;;;16.02;11.98;;;;;;;19.13;84.07;100522.50;7398593;19;20014;-66
2023/06/30 01:11:53;;;;;;;15.43;13.27;;;;;;;19.14;83.90;100519.75;7396498;19;20017;-66
2023/06/30 01:14:25;;;;;;;17.90;12.85;;;;;;;19.16;84.40;100519.66;7396929;19;20497;-66
2023/06/30 01:16:54;;;;;;;17.35;13.23;;;;;;;19.14;84.82;100526.88;7398582;19;20427;-66
2023/06/30 01:19:36;;;;;;;19.25;13.63;;;;;;;19.12;84.97;100516.34;7398821;19;20018;-66
2023/06/30 01:22:13;;;;;;;17.90;13.95;;;;;;;19.10;84.61;100517.38;7398727;19;20018;-65
2023/06/30 01:24:43;;;;;;;17.33;13.52;;;;;;;19.07;85.38;100509.56;7396552;19;20015;-65
2023/06/30 01:27:12;;;;;;;19.60;14.30;;;;;;;19.06;85.14;100508.72;7399045;19;20110;-65
2023/06/30 01:29:42;;;;;;;20.55;14.82;;;;;;;19.03;85.42;100501.81;7397346;19;20022;-66
2023/06/30 01:32:16;;;;;;;18.17;14.95;;;;;;;19.03;85.75;100507.13;7398291;19;20022;-65
2023/06/30 01:34:48;;;;;;;21.88;15.32;;;;;;;19.03;85.94;100501.81;7396511;19;20014;-65
2023/06/30 01:37:17;;;;;;;17.77;14.25;;;;;;;19.03;85.66;100504.47;7398471;19;20022;-66
2023/06/30 01:39:46;;;;;;;21.17;15.32;;;;;;;19.04;86.03;100505.31;7398142;19;20033;-65
2023/06/30 01:42:15;;;;;;;22.80;15.65;;;;;;;19.07;86.45;100501.59;7398044;19;20028;-66
2023/06/30 01:44:45;;;;;;;18.85;14.52;;;;;;;19.03;86.13;100498.28;7396054;19;20031;-65
2023/06/30 01:47:14;;;;;;;19.23;15.20;;;;;;;19.03;86.83;100498.28;7397950;19;20019;-65
2023/06/30 01:49:44;;;;;;;18.55;14.05;;;;;;;19.02;86.71;100501.91;7396604;19;20032;-65
2023/06/30 01:52:16;;;;;;;19.73;14.68;;;;;;;19.01;86.55;100495.72;7397353;19;20510;-66
2023/06/30 01:54:44;;;;;;;17.83;14.93;;;;;;;18.99;86.85;100491.44;7397229;19;20021;-64
2023/06/30 01:57:13;;;;;;;22.20;15.07;;;;;;;18.99;87.09;100500.28;7397594;19;20157;-65
2023/06/30 01:59:48;;;;;;;18.77;14.95;;;;;;;18.99;86.97;100497.63;7397462;19;20026;-65
2023/06/30 02:02:17;;;;;;;19.02;14.73;;;;;;;18.96;87.12;100500.47;7397341;19;20014;-65
2023/06/30 02:04:45;;;;;;;20.70;15.90;;;;;;;18.97;86.76;100496.84;7395587;19;20038;-65
2023/06/30 02:07:16;;;;;;;20.67;14.13;;;;;;;18.98;86.95;100501.22;7395111;19;20431;-65
2023/06/30 02:09:45;;;;;;;21.13;15.65;;;;;;;18.98;87.28;100490.59;7396744;19;20086;-65
2023/06/30 02:12:13;;;;;;;19.25;14.15;;;;;;;18.99;87.18;100502.94;7396619;19;20394;-65
2023/06/30 02:14:41;;;;;;;20.38;15.55;;;;;;;19.01;86.69;100495.72;7394903;19;20018;-65
2023/06/30 02:17:11;;;;;;;22.27;15.65;;;;;;;19.02;86.89;100497.44;7396830;19;20090;-65
2023/06/30 02:19:40;;;;;;;23.58;14.57;;;;;;;19.03;86.86;100500.94;7394114;19;20418;-65
2023/06/30 02:22:08;;;;;;;19.92;14.68;;;;;;;19.00;86.66;100499.31;7396648;19;20015;-65
2023/06/30 02:24:39;;;;;;;19.92;14.70;;;;;;;18.99;87.25;100502.06;7394872;19;20035;-66
2023/06/30 02:27:08;;;;;;;20.80;15.75;;;;;;;18.97;86.91;100502.16;7395368;19;20018;-66
2023/06/30 02:29:37;;;;;;;20.48;15.27;;;;;;;18.95;86.62;100498.75;7395979;19;20018;-65
2023/06/30 02:32:06;;;;;;;20.55;15.57;;;;;;;18.96;86.87;100495.13;7395978;19;20014;-66
2023/06/30 02:34:35;;;;;;;24.35;15.82;;;;;;;18.96;86.62;100495.13;7394840;19;20424;-65
2023/06/30 02:37:03;;;;;;;19.08;15.02;;;;;;;18.97;86.85;100490.66;7395806;19;20485;-66
2023/06/30 02:39:32;;;;;;;20.92;14.98;;;;;;;18.95;86.76;100488.09;7396057;19;20048;-66
2023/06/30 02:42:03;;;;;;;20.08;14.75;;;;;;;18.96;86.89;100486.31;7396194;19;20022;-67
2023/06/30 02:44:31;;;;;;;19.45;15.80;;;;;;;18.94;86.62;100488.22;7394986;19;20035;-66
2023/06/30 02:47:06;;;;;;;20.60;15.30;;;;;;;18.92;86.61;100485.66;7393864;19;20406;-65
2023/06/30 02:49:35;;;;;;;18.55;15.02;;;;;;;18.89;86.91;100484.00;7394080;19;20006;-66
2023/06/30 02:52:03;;;;;;;21.20;15.25;;;;;;;18.93;86.84;100484.72;7395408;19;20018;-65
2023/06/30 02:54:32;;;;;;;20.85;15.85;;;;;;;18.93;87.16;100476.75;7394202;19;20022;-65
2023/06/30 02:57:03;;;;;;;21.92;16.80;;;;;;;18.94;86.79;100474.91;7395444;19;20022;-66
2023/06/30 02:59:31;;;;;;;22.35;15.20;;;;;;;18.96;87.17;100475.69;7395857;19;20094;-66
2023/06/30 03:02:00;;;;;;;22.60;16.27;;;;;;;18.99;87.11;100475.50;7395542;19;20019;-66
2023/06/30 03:04:28;;;;;;;25.13;16.50;;;;;;;18.99;87.07;100471.03;7393689;19;20022;-66
2023/06/30 03:06:57;;;;;;;21.52;15.93;;;;;;;18.99;87.23;100468.38;7395073;19;20081;-66
2023/06/30 03:09:25;;;;;;;22.02;16.83;;;;;;;19.01;86.74;100470.94;7394740;19;20035;-67
2023/06/30 03:11:54;;;;;;;21.50;16.33;;;;;;;19.01;86.68;100479.75;7393358;19;20039;-66
2023/06/30 03:14:25;;;;;;;21.92;16.25;;;;;;;19.02;86.76;100476.16;7393217;19;20502;-66
2023/06/30 03:16:54;;;;;;;24.08;16.77;;;;;;;19.03;86.53;100474.34;7392930;19;20513;-66
2023/06/30 03:19:22;;;;;;;21.75;16.13;;;;;;;19.04;86.89;100478.72;7393179;19;20465;-66
2023/06/30 03:21:50;;;;;;;21.17;15.10;;;;;;;19.03;86.69;100475.22;7393053;19;20019;-66
2023/06/30 03:24:19;;;;;;;22.23;16.42;;;;;;;19.04;86.67;100471.63;7393153;19;20554;-66
2023/06/30 03:26:47;;;;;;;22.20;15.75;;;;;;;19.08;86.66;100472.25;7394830;19;20074;-65
2023/06/30 03:29:16;;;;;;;22.58;17.17;;;;;;;19.09;86.93;100468.66;7394574;19;20085;-65
2023/06/30 03:31:47;;;;;;;20.30;15.45;;;;;;;19.11;86.60;100473.88;7399277;19;20089;-65
2023/06/30 03:34:15;;;;;;;22.73;16.50;;;;;;;19.12;86.77;100471.13;7399855;19;20086;-65
2023/06/30 03:36:44;;;;;;;21.13;17.02;;;;;;;19.13;86.84;100472.84;7402071;19;20098;-66
2023/06/30 03:39:12;;;;;;;21.80;16.90;;;;;;;19.16;86.65;100469.16;7401688;19;20425;-66
2023/06/30 03:41:41;;;;;;;21.92;16.73;;;;;;;19.17;86.49;100458.41;7401584;19;20047;-66
2023/06/30 03:44:11;;;;;;;22.15;15.93;;;;;;;19.18;86.40;100464.56;7398261;19;20078;-66
2023/06/30 03:46:39;;;;;;;23.95;17.10;;;;;;;19.18;86.45;100461.91;7401705;19;20007;-66
2023/06/30 03:49:10;;;;;;;20.35;16.45;;;;;;;19.19;86.24;100456.50;7400344;19;20085;-66
2023/06/30 03:51:39;;;;;;;21.35;16.52;;;;;;;19.20;86.49;100454.69;7399372;19;20025;-65
2023/06/30 03:54:07;;;;;;;20.05;15.90;;;;;;;19.21;86.26;100464.41;7398661;19;20572;-66
2023/06/30 03:56:35;;;;;;;34.50;24.77;;;;;;;19.23;86.45;100461.63;7398765;19;20019;-66
2023/06/30 03:59:04;;;;;;;38.22;29.42;;;;;;;19.25;86.29;100465.06;7398223;19;20074;-65
2023/06/30 04:01:33;;;;;;;107.35;73.95;;;;;;;19.25;86.62;100455.25;7397995;19;20011;-66
2023/06/30 04:04:02;;;;;;;54.38;39.35;;;;;;;19.26;86.54;100448.13;7399332;19;20015;-65
2023/06/30 04:06:33;;;;;;;51.50;35.63;;;;;;;19.28;86.65;100457.72;7400348;19;20090;-66
2023/06/30 04:09:02;;;;;;;28.10;20.60;;;;;;;19.30;86.44;100453.16;7397598;19;20014;-65
2023/06/30 04:11:30;;;;;;;27.58;19.20;;;;;;;19.31;86.35;100451.34;7398022;19;20082;-66
2023/06/30 04:14:00;;;;;;;23.73;17.95;;;;;;;19.34;86.33;100454.66;7399297;19;20092;-66
2023/06/30 04:16:29;;;;;;;24.45;17.92;;;;;;;19.36;86.25;100458.09;7400670;19;20022;-66
2023/06/30 04:18:57;;;;;;;23.17;17.83;;;;;;;19.39;86.18;100458.88;7400727;19;20410;-66
2023/06/30 04:21:26;;;;;;;21.83;16.38;;;;;;;19.40;86.01;100445.47;7400361;19;20086;-66
2023/06/30 04:23:57;;;;;;;21.70;17.15;;;;;;;19.43;85.82;100450.56;7398031;19;20022;-66
2023/06/30 04:26:25;;;;;;;22.80;16.85;;;;;;;19.45;86.17;100447.81;7397453;19;20510;-66
2023/06/30 04:28:54;;;;;;;21.30;16.17;;;;;;;19.46;85.81;100446.88;7400249;19;20044;-66
2023/06/30 04:31:22;;;;;;;23.95;17.08;;;;;;;19.47;85.86;100441.44;7397761;19;20035;-66
2023/06/30 04:33:51;;;;;;;23.67;17.27;;;;;;;19.48;85.85;100440.50;7398272;19;20074;-66
2023/06/30 04:36:20;;;;;;;20.80;16.80;;;;;;;19.49;85.58;100428.91;7399956;19;20026;-66
2023/06/30 04:38:48;;;;;;;24.20;17.67;;;;;;;19.51;85.56;100432.34;7399871;19;20018;-66
2023/06/30 04:41:21;;;;;;;23.92;17.52;;;;;;;19.52;85.76;100430.50;7398344;19;20082;-66
2023/06/30 04:43:49;;;;;;;22.77;16.70;;;;;;;19.53;85.85;100426.91;7397038;19;20090;-65
2023/06/30 04:46:18;;;;;;;24.08;16.42;;;;;;;19.57;85.21;100424.91;7396981;19;20525;-65
2023/06/30 04:48:48;;;;;;;22.23;16.95;;;;;;;19.58;85.54;100429.28;7398867;19;20074;-66
2023/06/30 04:51:16;;;;;;;20.70;16.95;;;;;;;19.60;85.47;100430.00;7397761;19;20082;-65
2023/06/30 04:53:45;;;;;;;21.05;17.13;;;;;;;19.61;85.24;100421.94;7396884;19;20031;-66
2023/06/30 04:56:13;;;;;;;22.50;16.90;;;;;;;19.64;85.09;100416.41;7398526;19;20541;-67
2023/06/30 04:58:44;;;;;;;20.80;16.70;;;;;;;19.66;84.87;100417.19;7398778;19;20073;-66
2023/06/30 05:01:12;;;;;;;23.45;16.80;;;;;;;19.69;84.63;100421.44;7398702;19;20082;-66
2023/06/30 05:03:41;;;;;;;22.15;17.35;;;;;;;19.74;84.68;100424.66;7396811;19;20078;-66
2023/06/30 05:06:09;;;;;;;22.67;16.92;;;;;;;19.82;84.36;100429.47;7398238;19;20025;-65
2023/06/30 05:08:38;;;;;;;22.27;17.27;;;;;;;19.89;84.61;100417.53;7395348;19;20079;-65
2023/06/30 05:11:06;;;;;;;24.65;17.88;;;;;;;19.95;84.12;100408.25;7396683;19;20018;-65
2023/06/30 05:13:35;;;;;;;24.73;17.40;;;;;;;20.00;83.79;100409.66;7396804;19;20540;-66
2023/06/30 05:16:06;;;;;;;24.20;17.13;;;;;;;20.07;83.83;100404.78;7397378;19;20347;-65
2023/06/30 05:18:35;;;;;;;20.15;15.73;;;;;;;20.13;83.09;100416.81;7398363;19;20022;-66
2023/06/30 05:21:03;;;;;;;21.90;16.20;;;;;;;20.18;83.34;100417.34;7396959;19;20083;-66
2023/06/30 05:23:32;;;;;;;20.73;15.95;;;;;;;20.23;83.25;100411.72;7395507;19;20023;-67
2023/06/30 05:26:00;;;;;;;21.23;16.92;;;;;;;20.27;82.86;100414.09;7395318;19;20083;-65
2023/06/30 05:28:29;;;;;;;23.48;17.75;;;;;;;20.32;82.22;100414.63;7398227;19;20029;-63
2023/06/30 05:30:57;;;;;;;23.88;17.10;;;;;;;20.39;82.22;100414.22;7396707;19;20404;-63
2023/06/30 05:33:28;;;;;;;22.40;16.23;;;;;;;20.45;81.79;100411.97;7395358;19;20077;-64
2023/06/30 05:35:57;;;;;;;23.33;16.70;;;;;;;20.50;81.67;100417.84;7398337;19;20022;-65
2023/06/30 05:38:25;;;;;;;20.77;15.55;;;;;;;20.56;81.19;100413.03;7402628;19;20018;-64
2023/06/30 05:40:53;;;;;;;20.17;15.90;;;;;;;20.62;81.47;100420.63;7400596;19;20027;-65
2023/06/30 05:43:22;;;;;;;20.25;16.00;;;;;;;20.66;81.19;100411.44;7396444;19;20011;-64
2023/06/30 05:45:51;;;;;;;21.50;15.48;;;;;;;20.71;80.69;100413.81;7397162;19;20517;-63
2023/06/30 05:48:19;;;;;;;19.98;15.82;;;;;;;20.76;80.86;100419.69;7397692;19;20018;-62
2023/06/30 05:50:50;;;;;;;20.77;15.85;;;;;;;20.82;80.48;100416.59;7395733;19;20082;-63
2023/06/30 05:53:19;;;;;;;20.45;16.60;;;;;;;20.89;80.49;100415.22;7395234;19;20081;-63
2023/06/30 05:55:47;;;;;;;19.85;15.20;;;;;;;20.97;80.56;100420.00;7396583;19;20086;-64
2023/06/30 05:58:16;;;;;;;20.88;16.88;;;;;;;21.02;80.35;100415.19;7396994;19;20024;-64
2023/06/30 06:00:44;;;;;;;20.58;15.80;;;;;;;21.09;79.87;100424.47;7397320;19;20082;-64
2023/06/30 06:03:13;;;;;;;20.48;15.60;;;;;;;21.19;79.77;100423.81;7395808;19;20019;-64
2023/06/30 06:05:41;;;;;;;21.77;15.77;;;;;;;21.27;79.23;100424.13;7395465;19;20037;-63
2023/06/30 06:08:13;;;;;;;23.10;15.73;;;;;;;21.36;78.83;100423.44;7394565;19;20390;-64
2023/06/30 06:10:42;;;;;;;19.90;16.25;;;;;;;21.47;78.22;100417.31;7396466;19;20037;-63
2023/06/30 06:13:11;;;;;;;18.63;14.35;;;;;;;21.56;78.24;100427.38;7395911;19;20365;-64
2023/06/30 06:15:40;;;;;;;18.65;14.75;;;;;;;21.66;78.00;100432.00;7395892;19;20235;-64
2023/06/30 06:18:08;;;;;;;21.13;15.52;;;;;;;21.76;76.86;100433.03;7396001;19;20026;-64
2023/06/30 06:20:37;;;;;;;18.30;14.38;;;;;;;21.81;76.90;100433.53;7396084;19;20377;-65
2023/06/30 06:23:05;;;;;;;18.38;14.55;;;;;;;21.82;75.94;100432.59;7395772;19;20036;-64
2023/06/30 06:25:38;;;;;;;17.85;13.95;;;;;;;21.83;75.75;100423.63;7396255;19;20010;-64
2023/06/30 06:28:06;;;;;;;18.35;14.48;;;;;;;21.85;75.68;100429.72;7396889;19;20019;-64
2023/06/30 06:30:35;;;;;;;19.85;14.98;;;;;;;21.86;75.12;100434.06;7395025;19;20027;-65
2023/06/30 06:33:04;;;;;;;19.38;14.85;;;;;;;21.83;75.01;100428.13;7395097;19;20481;-66
2023/06/30 06:35:33;;;;;;;20.17;15.32;;;;;;;21.83;75.00;100433.47;7395382;19;20014;-63
2023/06/30 06:38:02;;;;;;;21.42;16.02;;;;;;;21.81;74.83;100428.22;7395712;19;20048;-65
2023/06/30 06:40:32;;;;;;;24.63;14.90;;;;;;;21.85;75.03;100435.03;7395151;19;20434;-64
2023/06/30 06:43:03;;;;;;;20.33;15.80;;;;;;;21.88;75.21;100426.78;7395457;19;20018;-65
2023/06/30 06:45:32;;;;;;;20.10;15.32;;;;;;;21.94;74.86;100423.66;7392854;19;20555;-65
2023/06/30 06:48:19;;;;;;;18.45;13.55;;;;;;;22.03;74.16;100431.97;7393597;19;20082;-65
2023/06/30 06:50:48;;;;;;;20.95;15.15;;;;;;;22.08;74.59;100427.13;7392957;19;20090;-64
2023/06/30 06:53:25;;;;;;;19.23;14.27;;;;;;;22.11;73.68;100426.88;7394507;19;20507;-63
2023/06/30 06:55:55;;;;;;;18.25;14.15;;;;;;;22.17;73.76;100442.47;7393269;19;20015;-64
2023/06/30 06:58:27;;;;;;;17.40;13.82;;;;;;;22.24;73.68;100440.16;7395038;19;20538;-62
2023/06/30 07:00:56;;;;;;;18.38;13.98;;;;;;;22.29;73.69;100443.34;7394878;19;20552;-64
2023/06/30 07:03:24;;;;;;;17.25;13.40;;;;;;;22.34;73.50;100443.84;7393864;19;20036;-63
2023/06/30 07:05:55;;;;;;;17.83;13.73;;;;;;;22.41;73.04;100442.44;7390843;19;20082;-64
2023/06/30 07:08:23;;;;;;;18.58;13.60;;;;;;;22.46;72.62;100439.41;7394581;19;20020;-64
2023/06/30 07:10:52;;;;;;;16.98;13.40;;;;;;;22.51;72.69;100445.25;7393213;19;20074;-64
2023/06/30 07:13:23;;;;;;;19.98;14.45;;;;;;;22.51;72.21;100450.59;7392901;19;20014;-64
2023/06/30 07:15:54;;;;;;;18.05;13.50;;;;;;;22.50;71.73;100448.06;7394590;19;20198;-64
2023/06/30 07:18:23;;;;;;;18.63;13.57;;;;;;;22.47;72.25;100449.16;7395018;19;20081;-63
2023/06/30 07:20:55;;;;;;;16.27;13.38;;;;;;;22.46;71.94;100452.78;7393797;19;20019;-64
2023/06/30 07:23:25;;;;;;;18.08;14.85;;;;;;;22.43;71.75;100436.97;7392659;19;20434;-65
2023/06/30 07:25:53;;;;;;;17.17;14.85;;;;;;;22.40;71.97;100423.84;7391559;19;20017;-63
2023/06/30 07:28:22;;;;;;;19.35;14.38;;;;;;;22.41;71.70;100428.25;7394087;19;20102;-66
2023/06/30 07:30:51;;;;;;;19.02;14.35;;;;;;;22.42;71.99;100429.94;7392217;19;20023;-64
2023/06/30 07:33:22;;;;;;;18.90;13.77;;;;;;;22.48;71.69;100425.94;7392264;19;20025;-63
2023/06/30 07:35:51;;;;;;;19.45;14.65;;;;;;;22.53;71.21;100424.63;7392298;19;20018;-64
2023/06/30 07:38:19;;;;;;;23.20;13.90;;;;;;;22.57;71.11;100418.06;7391979;19;20427;-64
2023/06/30 07:40:47;;;;;;;17.90;14.02;;;;;;;22.63;70.99;100423.91;7392182;19;20091;-64
2023/06/30 07:43:22;;;;;;;18.00;13.73;;;;;;;22.68;70.12;100424.38;7393399;19;20078;-65
2023/06/30 07:45:51;;;;;;;18.85;14.07;;;;;;;22.68;70.30;100419.88;7391862;19;20090;-63
2023/06/30 07:48:22;;;;;;;18.55;13.73;;;;;;;22.67;69.80;100425.34;7394006;19;20086;-64
2023/06/30 07:50:50;;;;;;;17.77;13.23;;;;;;;22.66;69.66;100437.00;7391585;19;20023;-64
2023/06/30 07:53:20;;;;;;;15.73;13.18;;;;;;;22.64;69.20;100439.81;7393098;19;20023;-63
2023/06/30 07:55:49;;;;;;;18.90;13.77;;;;;;;22.66;69.52;100443.22;7391347;19;20018;-64
2023/06/30 07:58:17;;;;;;;18.02;13.88;;;;;;;22.69;69.63;100442.16;7390973;19;20087;-65
2023/06/30 08:00:45;;;;;;;17.70;14.00;;;;;;;22.75;69.28;100439.00;7390998;19;20086;-65
2023/06/30 08:03:14;;;;;;;18.05;14.40;;;;;;;22.75;69.22;100442.50;7391867;19;20131;-65
2023/06/30 08:05:45;;;;;;;18.60;14.25;;;;;;;22.68;69.62;100443.94;7393102;19;20023;-64
2023/06/30 08:08:13;;;;;;;17.60;12.80;;;;;;;22.68;69.26;100448.47;7393125;19;20010;-65
2023/06/30 08:10:43;;;;;;;17.60;13.35;;;;;;;22.69;68.83;100444.81;7393362;19;20015;-65
2023/06/30 08:13:11;;;;;;;18.95;13.48;;;;;;;22.67;68.35;100439.59;7392470;19;20011;-65
2023/06/30 08:15:40;;;;;;;14.98;12.60;;;;;;;22.69;67.88;100447.50;7393288;19;20032;-65
2023/06/30 08:18:08;;;;;;;18.38;13.00;;;;;;;22.66;67.43;100453.06;7398135;19;20070;-65
2023/06/30 08:20:36;;;;;;;17.25;13.38;;;;;;;22.61;67.90;100451.59;7400368;19;20082;-65
2023/06/30 08:23:08;;;;;;;19.60;14.02;;;;;;;22.60;67.12;100451.72;7399661;19;20584;-65
2023/06/30 08:25:36;;;;;;;22.85;14.40;;;;;;;22.59;67.85;100456.19;7400595;19;20022;-65
2023/06/30 08:28:05;;;;;;;21.27;15.85;;;;;;;22.56;67.68;100448.44;7397650;19;20081;-64
2023/06/30 08:30:33;;;;;;;26.52;17.13;;;;;;;22.56;68.33;100452.94;7400463;19;20014;-65
2023/06/30 08:33:02;;;;;;;22.15;18.48;;;;;;;22.59;68.64;100452.69;7397154;19;20078;-64
2023/06/30 08:35:30;;;;;;;24.13;17.88;;;;;;;22.63;69.11;100439.94;7399112;19;20070;-65
2023/06/30 08:37:59;;;;;;;22.48;18.63;;;;;;;22.67;68.95;100455.63;7400002;19;20035;-66
2023/06/30 08:40:31;;;;;;;24.70;17.90;;;;;;;22.69;68.93;100448.31;7399575;19;20082;-66
2023/06/30 08:43:02;;;;;;;25.42;17.30;;;;;;;22.70;68.56;100465.25;7397386;19;20018;-67
2023/06/30 08:45:31;;;;;;;25.25;18.45;;;;;;;22.72;68.43;100452.59;7399530;19;20014;-66
2023/06/30 08:48:10;;;;;;;25.30;18.67;;;;;;;22.77;68.64;100461.09;7396758;19;20077;-66
2023/06/30 08:50:40;;;;;;;26.33;19.00;;;;;;;22.78;69.19;100460.13;7397008;19;20584;-66
2023/06/30 08:53:09;;;;;;;23.35;18.92;;;;;;;22.80;68.90;100466.22;7397007;19;20077;-66
2023/06/30 08:55:40;;;;;;;25.60;20.17;;;;;;;22.81;69.31;100467.94;7399105;19;20505;-66
2023/06/30 08:58:10;;;;;;;26.80;20.08;;;;;;;22.80;69.01;100468.91;7399004;19;20129;-66
2023/06/30 09:00:38;;;;;;;27.23;19.65;;;;;;;22.77;69.42;100471.78;7396498;19;20036;-66
2023/06/30 09:03:08;;;;;;;25.98;18.70;;;;;;;22.76;69.56;100460.25;7398262;19;20092;-66
2023/06/30 09:05:39;;;;;;;23.63;18.60;;;;;;;22.81;69.21;100451.03;7396648;19;20029;-67
2023/06/30 09:08:14;;;;;;;24.67;18.77;;;;;;;22.85;69.17;100447.13;7398835;19;20037;-65
2023/06/30 09:10:46;;;;;;;25.52;18.52;;;;;;;22.80;68.79;100452.84;7398259;19;20078;-66
2023/06/30 09:13:16;;;;;;;25.80;18.20;;;;;;;22.79;69.24;100453.81;7396161;19;20026;-66
2023/06/30 09:15:46;;;;;;;26.35;20.27;;;;;;;22.80;69.48;100436.81;7398033;19;20081;-65
2023/06/30 09:18:15;;;;;;;26.10;20.02;;;;;;;22.87;68.93;100435.34;7397910;19;20074;-65
2023/06/30 09:20:44;;;;;;;27.55;19.55;;;;;;;22.92;69.20;100441.19;7397753;19;20031;-67
2023/06/30 09:23:13;;;;;;;25.45;20.40;;;;;;;22.94;68.62;100435.72;7397610;19;20078;-69
2023/06/30 09:25:45;;;;;;;30.00;21.10;;;;;;;22.91;68.69;100442.16;7397908;19;20078;-66
2023/06/30 09:28:15;;;;;;;25.13;20.83;;;;;;;22.85;68.82;100447.13;7397967;19;20041;-65
2023/06/30 09:30:46;;;;;;;24.63;20.20;;;;;;;22.81;68.90;100449.22;7397567;19;20017;-66
2023/06/30 09:33:20;;;;;;;26.85;20.15;;;;;;;22.82;69.08;100428.66;7395897;19;20471;-67
2023/06/30 09:35:50;;;;;;;26.60;20.13;;;;;;;22.89;68.81;100438.75;7395218;19;20014;-67
2023/06/30 09:38:21;;;;;;;30.70;23.85;;;;;;;22.96;68.14;100444.47;7395083;19;20015;-67
2023/06/30 09:40:52;;;;;;;29.45;21.27;;;;;;;22.99;67.16;100446.03;7395612;19;20015;-66
2023/06/30 09:43:22;;;;;;;27.35;21.15;;;;;;;22.99;67.29;100440.69;7396584;19;20094;-66
2023/06/30 09:45:56;;;;;;;27.10;20.30;;;;;;;22.97;66.03;100451.50;7398118;19;20154;-66
2023/06/30 09:48:30;;;;;;;27.17;20.77;;;;;;;22.96;66.54;100439.09;7396015;19;20082;-66
2023/06/30 09:51:07;;;;;;;31.10;20.92;;;;;;;23.01;66.08;100436.91;7395247;19;20078;-66
2023/06/30 09:53:38;;;;;;;28.80;20.70;;;;;;;23.11;66.73;100437.03;7395371;19;20023;-66
2023/06/30 09:56:11;;;;;;;27.98;20.50;;;;;;;23.20;66.16;100433.69;7398150;19;20074;-67
2023/06/30 09:58:40;;;;;;;26.00;19.42;;;;;;;23.35;66.11;100423.53;7397307;19;20025;-65
2023/06/30 10:01:09;;;;;;;28.75;19.75;;;;;;;23.53;65.63;100425.72;7397183;19;20154;-65
2023/06/30 10:03:48;;;;;;;27.98;19.85;;;;;;;23.65;64.30;100424.72;7395599;19;20035;-65
2023/06/30 10:06:18;;;;;;;27.42;21.17;;;;;;;23.71;64.76;100418.00;7396740;19;20074;-66
2023/06/30 10:08:48;;;;;;;26.60;20.15;;;;;;;23.70;64.47;100433.22;7396023;19;20510;-66
2023/06/30 10:11:19;;;;;;;30.20;21.42;;;;;;;23.65;64.58;100431.91;7396082;19;20040;-67
2023/06/30 10:13:49;;;;;;;27.25;20.45;;;;;;;23.57;64.29;100428.03;7394927;19;20093;-66
2023/06/30 10:16:20;;;;;;;29.95;19.55;;;;;;;23.47;63.93;100432.44;7394206;19;20018;-67
2023/06/30 10:18:49;;;;;;;29.20;21.58;;;;;;;23.47;64.40;100426.19;7393486;19;20485;-67
2023/06/30 10:21:18;;;;;;;31.08;22.98;;;;;;;23.37;64.04;100415.41;7393546;19;20031;-66
2023/06/30 10:23:50;;;;;;;24.55;19.23;;;;;;;23.34;63.80;100424.53;7396391;19;20035;-72
2023/06/30 10:26:22;;;;;;;28.85;19.98;;;;;;;23.37;64.32;100418.94;7395921;19;20036;-66
2023/06/30 10:28:51;;;;;;;27.70;20.08;;;;;;;23.48;63.72;100411.84;7395476;19;20014;-67
2023/06/30 10:31:20;;;;;;;27.63;20.38;;;;;;;23.57;63.68;100405.75;7395437;19;20019;-66
2023/06/30 10:33:48;;;;;;;26.85;19.40;;;;;;;23.58;63.82;100405.63;7393646;19;20022;-67
2023/06/30 10:36:19;;;;;;;28.50;20.52;;;;;;;23.57;63.03;100408.44;7394135;19;20018;-67
2023/06/30 10:38:48;;;;;;;29.38;21.15;;;;;;;23.53;63.29;100413.19;7397091;19;20075;-66
2023/06/30 10:41:22;;;;;;;28.30;20.83;;;;;;;23.50;62.61;100431.31;7393845;19;20037;-66
2023/06/30 10:44:07;;;;;;;26.48;21.45;;;;;;;23.46;62.93;100424.53;7394207;19;20022;-65
2023/06/30 10:46:53;;;;;;;29.15;19.83;;;;;;;23.41;63.39;100427.56;7396261;19;20019;-67
2023/06/30 10:49:25;;;;;;;29.55;20.35;;;;;;;23.38;63.53;100430.47;7394820;19;20014;-65
2023/06/30 10:51:55;;;;;;;27.45;20.90;;;;;;;23.34;63.60;100412.97;7392969;19;20019;-66
2023/06/30 10:54:24;;;;;;;26.63;20.23;;;;;;;23.28;63.97;100427.72;7393200;19;20082;-66
2023/06/30 10:57:07;;;;;;;26.92;20.38;;;;;;;23.20;64.16;100424.78;7394564;19;20166;-66
2023/06/30 10:59:40;;;;;;;31.70;20.33;;;;;;;23.17;64.64;100415.19;7395016;19;20018;-66
2023/06/30 11:02:16;;;;;;;28.05;21.17;;;;;;;22.96;63.39;100417.72;7394984;19;20011;-65
2023/06/30 11:04:45;;;;;;;27.52;20.13;;;;;;;22.83;64.27;100420.50;7392474;19;20019;-65
2023/06/30 11:07:19;;;;;;;28.80;21.60;;;;;;;22.70;64.47;100411.75;7393459;19;20414;-66
2023/06/30 11:10:03;;;;;;;27.88;21.25;;;;;;;22.59;65.32;100421.44;7394412;19;20096;-66
2023/06/30 11:12:55;;;;;;;27.30;21.17;;;;;;;22.47;66.14;100414.41;7392928;19;20086;-68
2023/06/30 11:15:35;;;;;;;29.73;22.00;;;;;;;22.43;66.66;100420.94;7394874;19;20094;-65
2023/06/30 11:18:06;;;;;;;29.38;20.83;;;;;;;22.44;67.05;100414.63;7392055;19;20019;-67
2023/06/30 11:20:35;;;;;;;28.13;20.13;;;;;;;22.42;65.54;100403.22;7392951;19;20023;-65
2023/06/30 11:23:05;;;;;;;28.52;18.77;;;;;;;22.31;64.97;100414.69;7393688;19;20105;-66